• Join FlightAware (Why Join?)
  • Login
  • US Flag 
03:02AM EDT


 

Airport Tracker/Info


-or-


 

Live Flight TrackerFlight Track Log ✈ EJA387 ✈ 01-Sep-2013 ✈ KACY - KLVM

Flight Track Log - Related Links

Times and Time Zones

All times are in EDT time to prevent confusion due to time zone crossing. See the EJA387 flight status page for this flight to view local times or setup timezone preferences in your user account.

Time Position Orientation Groundspeed Altitude Reporting Facility
EDT Latitude Longitude Course Direction KTS MPH feet Rate Location/Type
10:44PM 39.4422 -74.5356 225° Southwest 198 228 2,100  Level Washington Center
10:46PM 39.3783 -74.6169 225° Southwest 277 319 6,600 1,920 Climbing Washington Center
10:47PM 39.3456 -74.7058 245° Southwest 268 308 6,900 180 Climbing Washington Center
10:48PM 39.3189 -74.7842 246° West 268 308 7,000 1,440 Climbing Washington Center
10:49PM 39.2883 -74.8731 246° West 268 308 9,800 2,880 Climbing Washington Center
10:50PM 39.2597 -74.9750 250° West 291 335 12,800 2,820 Climbing Washington Center
10:51PM 39.2872 -75.0794 289° West 290 334 15,500 1,920 Climbing Washington Center
10:52PM 39.3586 -75.1728 315° West 301 346 16,700 720 Climbing Washington Center
10:53PM 39.4297 -75.2717 313° West 343 395 17,000 540 Climbing Washington Center
10:54PM 39.4697 -75.3953 293° West 353 406 17,800 1,740 Climbing Washington Center
10:56PM 39.5556 -75.6633 293° West 350 403 22,800 1,920 Climbing New York Center
10:57PM 39.5942 -75.7847 292° West 355 409 24,200 1,140 Climbing New York Center
10:58PM 39.6325 -75.9089 292° West 360 414 25,100 900 Climbing New York Center
10:59PM 39.6708 -76.0356 291° West 373 429 26,000 1,320 Climbing New York Center
11:00PM 39.7108 -76.1656 292° West 380 437 27,800 1,500 Climbing New York Center
11:01PM 39.7486 -76.2928 291° West 380 437 29,000 1,200 Climbing New York Center
11:02PM 39.7903 -76.4256 292° West 386 444 30,300 1,380 Climbing New York Center
11:03PM 39.8294 -76.5614 291° West 386 444 31,800 1,560 Climbing New York Center
11:04PM 39.8672 -76.6833 292° West 386 444 33,500 1,380 Climbing New York Center
11:05PM 39.9069 -76.8086 292° West 381 438 34,600 1,080 Climbing New York Center
11:06PM 39.9439 -76.9364 291° West 376 433 35,700 1,020 Climbing New York Center
11:07PM 39.9811 -77.0644 291° West 381 438 36,700 1,020 Climbing New York Center
11:08PM 40.0200 -77.1925 292° West 381 438 37,800 840 Climbing New York Center
11:10PM 40.0786 -77.3867 292° West 372 428 39,100 660 Climbing Cleveland Center
11:11PM 40.1175 -77.5125 292° West 372 428 39,700 420 Climbing Cleveland Center
11:12PM 40.1542 -77.6383 291° West 372 428 40,000 120 Climbing Cleveland Center
11:13PM 40.1928 -77.7672 291° West 372 428 40,000  Level Cleveland Center
11:14PM 40.2314 -77.8989 291° West 383 441 40,000  Level Cleveland Center
11:15PM 40.2658 -78.0336 289° West 389 448 40,000  Level Cleveland Center
11:16PM 40.3000 -78.1631 289° West 389 448 40,000  Level Cleveland Center
11:17PM 40.3381 -78.2950 291° West 384 442 40,000  Level Cleveland Center
11:18PM 40.3761 -78.4272 291° West 384 442 40,000  Level Cleveland Center
11:19PM 40.4119 -78.5597 290° West 384 442 40,000  Level Cleveland Center
11:20PM 40.4539 -78.6894 293° West 384 442 40,000  Level Cleveland Center
11:21PM 40.4956 -78.8219 293° West 384 442 40,000  Level Cleveland Center
11:22PM 40.5392 -78.9519 294° West 389 448 40,000  Level Cleveland Center
11:23PM 40.5828 -79.0850 293° West 389 448 40,000  Level Cleveland Center
11:24PM 40.6325 -79.2289 295° West 389 448 40,000  Level Cleveland Center
11:25PM 40.6756 -79.3594 294° West 389 448 40,000  Level Cleveland Center
11:26PM 40.7186 -79.4900 294° West 389 448 40,000  Level Cleveland Center
11:27PM 40.7614 -79.6208 293° West 389 448 40,000  Level Cleveland Center
11:28PM 40.8042 -79.7547 293° West 389 448 40,000  Level Cleveland Center
11:29PM 40.8447 -79.8858 292° West 389 448 40,000  Level Cleveland Center
11:30PM 40.8872 -80.0175 293° West 389 448 40,000  Level Cleveland Center
11:31PM 40.9253 -80.1378 293° West 394 453 40,000  Level Cleveland Center
11:32PM 40.9672 -80.2725 292° West 394 453 40,000  Level Cleveland Center
11:33PM 41.0114 -80.4069 294° West 394 453 40,000  Level Cleveland Center
11:34PM 41.0511 -80.5392 292° West 394 453 40,000  Level Cleveland Center
11:35PM 41.0928 -80.6742 292° West 389 448 40,000  Level Cleveland Center
11:36PM 41.1342 -80.8231 290° West 389 448 40,000  Level Cleveland Center
11:37PM 41.1756 -80.9528 293° West 389 448 40,000  Level Cleveland Center
11:38PM 41.2147 -81.0856 291° West 389 448 40,000  Level Cleveland Center
11:39PM 41.2558 -81.2156 293° West 389 448 40,000  Level Cleveland Center
11:40PM 41.2944 -81.3458 292° West 384 442 40,000  Level Cleveland Center
11:41PM 41.3333 -81.4653 293° West 384 442 40,000  Level Cleveland Center
11:42PM 41.3717 -81.5986 291° West 384 442 40,000  Level Cleveland Center
11:43PM 41.4161 -81.7517 291° West 399 459 40,000  Level Cleveland Center
11:44PM 41.4564 -81.8908 291° West 399 459 40,000  Level Cleveland Center
11:45PM 41.4944 -82.0275 290° West 399 459 40,000  Level Cleveland Center
11:46PM 41.5322 -82.1586 291° West 389 448 40,000  Level Cleveland Center
11:47PM 41.5739 -82.2986 292° West 389 448 40,000  Level Cleveland Center
11:48PM 41.6075 -82.4217 290° West 394 453 40,000  Level Cleveland Center
11:49PM 41.6489 -82.5700 291° West 394 453 40,000  Level Cleveland Center
11:50PM 41.6881 -82.7075 291° West 394 453 40,000  Level Cleveland Center
11:51PM 41.7269 -82.8450 291° West 394 453 40,000  Level Cleveland Center
11:52PM 41.7658 -82.9858 290° West 394 453 40,000  Level Cleveland Center
11:53PM 41.8047 -83.1236 291° West 394 453 40,000  Level Cleveland Center
11:54PM 41.8411 -83.2617 290° West 394 453 40,000  Level Cleveland Center
11:55PM 41.8775 -83.3972 290° West 389 448 40,000  Level Cleveland Center
11:56PM 41.9197 -83.5358 292° West 394 453 40,000  Level Cleveland Center
11:57PM 41.9500 -83.6600 288° West 394 453 40,000  Level Cleveland Center
11:58PM 41.9878 -83.7986 290° West 394 453 40,000  Level Cleveland Center
11:59PM 42.0258 -83.9319 291° West 389 448 40,000  Level Cleveland Center
12:00AM 42.0633 -84.0711 290° West 389 448 40,000  Level Cleveland Center
12:01AM 42.1008 -84.2075 290° West 389 448 40,000  Level Cleveland Center
12:02AM 42.1364 -84.3300 291° West 389 448 40,000  Level Cleveland Center
12:02AM 42.1717 -84.4650 289° West 392 451 40,000  Level Chicago Center
12:03AM 42.2078 -84.6033 289° West 392 451 40,000  Level Chicago Center
12:04AM 42.2444 -84.7394 290° West 389 448 40,000  Level Chicago Center
12:05AM 42.2794 -84.8756 289° West 386 444 40,000  Level Chicago Center
12:06AM 42.3156 -85.0125 290° West 386 444 40,000  Level Chicago Center
12:07AM 42.3497 -85.1500 289° West 387 445 40,000  Level Chicago Center
12:08AM 42.3856 -85.2897 289° West 391 450 40,000  Level Chicago Center
12:10AM 42.4208 -85.4294 289° West 393 452 40,000  Level Chicago Center
12:11AM 42.4558 -85.5694 289° West 393 452 40,000  Level Chicago Center
12:12AM 42.4911 -85.7089 289° West 392 451 40,000  Level Chicago Center
12:13AM 42.5258 -85.8494 289° West 392 451 40,000  Level Chicago Center
12:14AM 42.5606 -85.9928 288° West 397 457 40,000  Level Chicago Center
12:15AM 42.5953 -86.1344 288° West 396 456 40,000  Level Chicago Center
12:16AM 42.6303 -86.2742 289° West 391 450 40,000  Level Chicago Center
12:17AM 42.6633 -86.4122 288° West 384 442 40,000  Level Chicago Center
12:18AM 42.6978 -86.5497 289° West 383 441 40,000  Level Chicago Center
12:19AM 42.7306 -86.6889 288° West 384 442 40,000  Level Chicago Center
12:20AM 42.7633 -86.8267 288° West 383 441 40,000  Level Chicago Center
12:21AM 42.7961 -86.9650 288° West 384 442 40,000  Level Chicago Center
12:22AM 42.8281 -87.1031 288° West 383 441 40,000  Level Chicago Center
12:23AM 42.8614 -87.2433 288° West 389 448 40,000  Level Chicago Center
12:24AM 42.8989 -87.3989 288° West 393 452 40,000  Level Chicago Center
12:25AM 42.9311 -87.5406 287° West 389 448 40,000  Level Chicago Center
12:26AM 42.9653 -87.6817 288° West 390 449 40,000  Level Chicago Center
12:27AM 42.9967 -87.8247 287° West 393 452 40,000  Level Chicago Center
12:28AM 43.0289 -87.9692 287° West 395 455 40,000  Level Chicago Center
12:29AM 43.0611 -88.1122 287° West 392 451 40,000  Level Chicago Center
12:30AM 43.0928 -88.2553 287° West 389 448 40,000  Level Chicago Center
12:31AM 43.1247 -88.3992 287° West 392 451 40,000  Level Chicago Center
12:32AM 43.1569 -88.5439 287° West 391 450 40,000  Level Chicago Center
12:33AM 43.1889 -88.6897 287° West 395 455 40,000  Level Chicago Center
12:34AM 43.2211 -88.8350 287° West 396 456 40,000  Level Chicago Center
12:35AM 43.2531 -88.9794 287° West 395 455 40,000  Level Chicago Center
12:36AM 43.2853 -89.1258 287° West 396 456 40,000  Level Chicago Center
12:37AM 43.3156 -89.2703 286° West 394 453 40,000  Level Chicago Center
12:38AM 43.3469 -89.4147 287° West 394 453 40,000  Level Chicago Center
12:39AM 43.3767 -89.5619 286° West 396 456 40,000  Level Chicago Center
12:40AM 43.4064 -89.7089 286° West 399 459 40,000  Level Chicago Center
12:41AM 43.4372 -89.8553 286° West 397 457 40,000  Level Chicago Center
12:42AM 43.4683 -90.0000 287° West 396 456 40,000  Level Chicago Center
12:43AM 43.4975 -90.1475 285° West 398 458 40,000  Level Chicago Center
12:44AM 43.5267 -90.2933 285° West 397 457 40,000  Level Chicago Center
12:45AM 43.5533 -90.4236 286° West 396 456 40,000  Level Chicago Center
12:46AM 43.5831 -90.5672 286° West 394 453 40,000  Level Chicago Center
12:47AM 43.6122 -90.7103 286° West 393 452 40,000  Level Chicago Center
12:48AM 43.6400 -90.8533 285° West 391 450 40,000  Level Chicago Center
12:49AM 43.6686 -90.9978 285° West 395 455 40,000  Level Chicago Center
12:50AM 43.6983 -91.1450 286° West 400 460 40,000  Level Chicago Center
12:51AM 43.7322 -91.3192 285° West 396 456 40,000  Level Chicago Center
12:52AM 43.7597 -91.4647 285° West 398 458 40,000  Level Chicago Center
12:53AM 43.7872 -91.6089 285° West 395 455 40,000  Level Chicago Center
12:54AM 43.8139 -91.7536 284° West 394 453 40,000  Level Chicago Center
12:55AM 43.8419 -91.8989 285° West 394 453 40,000  Level Chicago Center
12:56AM 43.8689 -92.0433 285° West 394 453 40,000  Level Chicago Center
12:57AM 43.8953 -92.1883 284° West 394 453 40,000  Level Chicago Center
12:58AM 43.9214 -92.3339 284° West 394 453 40,000  Level Chicago Center
12:59AM 43.9489 -92.4783 285° West 393 452 40,000  Level Chicago Center
01:00AM 43.9842 -92.6808 284° West 393 452 40,000  Level Minneapolis Center
01:01AM 44.0044 -92.8000 283° West 395 455 40,000  Level Minneapolis Center
01:02AM 44.0372 -92.9783 284° West 397 457 40,000  Level Minneapolis Center
01:03AM 44.0631 -93.1281 284° West 398 458 40,000  Level Minneapolis Center
01:04AM 44.0894 -93.2769 284° West 397 457 40,000  Level Minneapolis Center
01:05AM 44.1153 -93.4281 283° West 399 459 40,000  Level Minneapolis Center
01:06AM 44.1406 -93.5781 283° West 398 458 40,000  Level Minneapolis Center
01:07AM 44.1675 -93.7286 284° West 399 459 40,000  Level Minneapolis Center
01:08AM 44.1933 -93.8808 283° West 403 464 40,000  Level Minneapolis Center
01:09AM 44.2186 -94.0319 283° West 401 461 40,000  Level Minneapolis Center
01:10AM 44.2436 -94.1839 283° West 402 463 40,000  Level Minneapolis Center
01:11AM 44.2686 -94.3367 283° West 403 464 40,000  Level Minneapolis Center
01:12AM 44.2939 -94.4878 283° West 402 463 40,000  Level Minneapolis Center
01:13AM 44.3219 -94.6581 283° West 402 463 40,000  Level Minneapolis Center
01:14AM 44.3453 -94.8081 282° West 399 459 40,000  Level Minneapolis Center
01:15AM 44.3694 -94.9578 283° West 398 458 40,000  Level Minneapolis Center
01:16AM 44.3933 -95.1083 283° West 397 457 40,000  Level Minneapolis Center
01:17AM 44.4153 -95.2575 282° West 394 453 40,000  Level Minneapolis Center
01:18AM 44.4378 -95.4072 282° West 395 455 40,000  Level Minneapolis Center
01:19AM 44.4603 -95.5567 282° West 396 456 40,000  Level Minneapolis Center
01:20AM 44.4836 -95.7056 282° West 395 455 40,000  Level Minneapolis Center
01:21AM 44.5058 -95.8539 282° West 393 452 40,000  Level Minneapolis Center
01:22AM 44.5275 -96.0022 282° West 393 452 40,000  Level Minneapolis Center
01:23AM 44.5486 -96.1503 281° West 393 452 40,000  Level Minneapolis Center
01:24AM 44.5706 -96.2989 282° West 393 452 40,000  Level Minneapolis Center
01:25AM 44.5914 -96.4469 281° West 392 451 40,000  Level Minneapolis Center
01:26AM 44.6108 -96.5958 280° West 390 449 40,000  Level Minneapolis Center
01:27AM 44.6328 -96.7453 282° West 393 452 40,000  Level Minneapolis Center
01:28AM 44.6542 -96.8947 281° West 392 451 40,000  Level Minneapolis Center
01:29AM 44.6747 -97.0450 281° West 393 452 40,000  Level Minneapolis Center
01:30AM 44.6942 -97.1950 280° West 393 452 40,000  Level Minneapolis Center
01:31AM 44.7144 -97.3450 281° West 393 452 40,000  Level Minneapolis Center
01:32AM 44.7350 -97.4947 281° West 392 451 40,000  Level Minneapolis Center
01:33AM 44.7547 -97.6439 281° West 390 449 40,000  Level Minneapolis Center
01:34AM 44.7742 -97.7911 281° West 387 445 40,000  Level Minneapolis Center
01:35AM 44.7942 -97.9394 281° West 387 445 40,000  Level Minneapolis Center
01:36AM 44.8122 -98.0858 280° West 384 442 40,000  Level Minneapolis Center
01:37AM 44.8328 -98.2333 281° West 385 443 40,000  Level Minneapolis Center
01:38AM 44.8492 -98.3797 279° West 382 440 40,000  Level Minneapolis Center
01:39AM 44.8683 -98.5303 280° West 384 442 40,000  Level Minneapolis Center
01:41AM 44.8903 -98.7078 280° West 384 442 40,000  Level Minneapolis Center
01:42AM 44.9117 -98.8872 280° West 386 444 40,000  Level Minneapolis Center
01:43AM 44.9294 -99.0367 280° West 387 445 40,000  Level Minneapolis Center
01:44AM 44.9475 -99.1864 280° West 388 447 40,000  Level Minneapolis Center
01:45AM 44.9656 -99.3364 280° West 388 447 40,000  Level Minneapolis Center
01:46AM 44.9828 -99.4869 279° West 389 448 40,000  Level Minneapolis Center
01:47AM 44.9997 -99.6367 279° West 388 447 40,000  Level Minneapolis Center
01:48AM 45.0161 -99.7867 279° West 388 447 40,000  Level Minneapolis Center
01:49AM 45.0353 -99.9631 279° West 390 449 40,000  Level Minneapolis Center
01:50AM 45.0514 -100.1086 279° West 397 457 40,000  Level Minneapolis Center
01:51AM 45.0678 -100.2597 279° West 393 452 40,000  Level Minneapolis Center
01:52AM 45.0844 -100.4117 279° West 392 451 40,000  Level Minneapolis Center
01:53AM 45.1006 -100.5644 279° West 392 451 40,000  Level Minneapolis Center
01:54AM 45.1164 -100.7175 278° West 393 452 40,000  Level Minneapolis Center
01:55AM 45.1319 -100.8700 278° West 393 452 40,000  Level Minneapolis Center
01:56AM 45.1475 -101.0222 278° West 392 451 40,000  Level Minneapolis Center
01:57AM 45.1614 -101.1767 277° West 393 452 40,000  Level Minneapolis Center
01:58AM 45.1772 -101.3297 278° West 394 453 40,000  Level Minneapolis Center
01:59AM 45.1947 -101.4822 279° West 393 452 40,000  Level Minneapolis Center
02:00AM 45.2122 -101.6358 279° West 394 453 40,000  Level Minneapolis Center
02:01AM 45.2278 -101.7894 278° West 394 453 40,000  Level Minneapolis Center
02:02AM 45.2436 -101.9431 278° West 394 453 40,000  Level Minneapolis Center
02:03AM 45.2589 -102.0961 278° West 394 453 40,000  Level Minneapolis Center
02:04AM 45.2744 -102.2508 278° West 394 453 40,000  Level Minneapolis Center
02:05AM 45.2906 -102.4061 278° West 396 456 40,000  Level Minneapolis Center
02:06AM 45.3058 -102.5603 278° West 396 456 40,000  Level Minneapolis Center
02:07AM 45.3214 -102.7153 278° West 396 456 40,000  Level Minneapolis Center
02:08AM 45.3364 -102.8706 278° West 397 457 40,000  Level Minneapolis Center
02:09AM 45.3511 -103.0258 278° West 397 457 40,000  Level Minneapolis Center
02:10AM 45.3644 -103.1822 277° West 397 457 40,000  Level Minneapolis Center
02:11AM 45.3819 -103.3353 279° West 402 463 40,000  Level Salt Lake Center
02:12AM 45.3964 -103.4928 277° West 402 463 40,000  Level Salt Lake Center
02:13AM 45.4108 -103.6497 278° West 402 463 40,000  Level Salt Lake Center
02:14AM 45.4250 -103.8069 277° West 402 463 40,000  Level Salt Lake Center
02:15AM 45.4381 -103.9642 277° West 401 461 40,000  Level Salt Lake Center
02:16AM 45.4514 -104.1228 277° West 403 464 40,000  Level Salt Lake Center
02:17AM 45.4650 -104.2786 277° West 400 460 40,000  Level Salt Lake Center
02:18AM 45.4781 -104.4350 277° West 399 459 40,000  Level Salt Lake Center
02:19AM 45.4919 -104.6078 277° West 401 461 40,000  Level Salt Lake Center
02:20AM 45.5047 -104.7631 277° West 397 457 40,000  Level Salt Lake Center
02:21AM 45.5164 -104.9178 276° West 397 457 40,000  Level Salt Lake Center
02:22AM 45.5289 -105.0747 277° West 398 458 40,000  Level Salt Lake Center
02:23AM 45.5394 -105.2294 276° West 396 456 40,000  Level Salt Lake Center
02:24AM 45.5514 -105.3869 276° West 399 459 40,000  Level Salt Lake Center
02:25AM 45.5642 -105.5425 277° West 398 458 40,000  Level Salt Lake Center
02:26AM 45.5750 -105.6997 276° West 399 459 40,000  Level Salt Lake Center
02:27AM 45.5858 -105.8583 276° West 401 461 40,000  Level Salt Lake Center
02:28AM 45.5969 -106.0147 276° West 400 460 40,000  Level Salt Lake Center
02:29AM 45.6069 -106.1708 275° West 399 459 40,000  Level Salt Lake Center
02:30AM 45.6167 -106.3269 275° West 397 457 40,000  Level Salt Lake Center
02:31AM 45.6275 -106.4853 276° West 402 463 40,000  Level Salt Lake Center
02:32AM 45.6342 -106.6389 274° West 395 455 40,000  Level Salt Lake Center
02:33AM 45.6444 -106.7978 275° West 398 458 40,000  Level Salt Lake Center
02:34AM 45.6547 -106.9589 275° West 405 466 40,000  Level Salt Lake Center
02:35AM 45.6678 -107.1508 276° West 407 468 40,000  Level Salt Lake Center
02:36AM 45.6764 -107.3072 275° West 403 464 40,000  Level Salt Lake Center
02:37AM 45.6847 -107.4656 274° West 401 461 40,000  Level Salt Lake Center
02:38AM 45.6939 -107.6244 275° West 404 465 40,000 -120 Level Salt Lake Center
02:39AM 45.7017 -107.7803 274° West 397 457 39,800 -1,140 Descending Salt Lake Center
02:40AM 45.7097 -107.9350 274° West 395 455 37,800 -2,040 Descending Salt Lake Center
02:41AM 45.7175 -108.0883 274° West 390 449 35,700 -2,100 Descending Salt Lake Center
02:42AM 45.7244 -108.2475 274° West 400 460 33,600 -2,160 Descending Salt Lake Center
02:43AM 45.7322 -108.4144 274° West 418 481 31,400 -2,220 Descending Salt Lake Center
02:44AM 45.7392 -108.5808 273° West 422 486 29,200 -2,280 Descending Salt Lake Center
02:45AM 45.7472 -108.7492 274° West 427 491 26,900 -2,340 Descending Salt Lake Center
02:46AM 45.7547 -108.9106 274° West 411 473 24,600 -2,160 Descending Salt Lake Center
02:47AM 45.7614 -109.0658 274° West 395 455 22,600 -2,100 Descending Salt Lake Center
02:48AM 45.7681 -109.2233 274° West 397 457 20,500 -2,220 Descending Salt Lake Center
02:49AM 45.7747 -109.3886 273° West 387 445 18,200 -2,040 Descending Salt Lake Center
02:50AM 45.7794 -109.5283 273° West 359 413 16,500 -1,140 Descending Salt Lake Center
02:51AM 45.7844 -109.6647 273° West 350 403 16,000 -960 Descending Salt Lake Center
02:52AM 45.7900 -109.8033 273° West 352 405 14,600 -1,920 Descending Salt Lake Center
02:53AM 45.7939 -109.9325 273° West 349 402 12,200 -2,400 Descending Salt Lake Center
02:55AM 45.7531 -110.1567 267° West  Level Estimated
03:02AM 45.6833 -110.4333 267° West  Level FlightAware Approximate
03:03AM 45.6994 -110.4480 267° West  Level Estimated
03:04AM 45.6994 -110.4480 267° West  Level Estimated
03:05AM 45.6994 -110.4480 267° West  Level Estimated
03:06AM 45.6994 -110.4480 267° West  Level Estimated
03:07AM 45.6994 -110.4480 267° West  Level Estimated
03:08AM 45.6994 -110.4480 267° West  Level Estimated
03:09AM 45.6994 -110.4480 267° West  Level Estimated
03:10AM 45.6994 -110.4480 267° West  Level Estimated
03:11AM 45.6994 -110.4480 267° West  Level Estimated
03:12AM 45.6994 -110.4480 267° West  Level Estimated
03:13AM 45.6994 -110.4480 267° West  Level Estimated
03:14AM 45.6994 -110.4480 267° West  Level Estimated